createdAt,value
2023-05-14T00:02:09.007Z,8.40
2023-05-14T00:04:36.024Z,8.40
2023-05-14T00:07:02.979Z,8.40
2023-05-14T00:09:30.499Z,8.40
2023-05-14T00:11:57.307Z,8.30
2023-05-14T00:14:24.443Z,8.20
2023-05-14T00:16:51.348Z,8.30
2023-05-14T00:19:18.281Z,8.30
2023-05-14T00:21:45.575Z,8.30
2023-05-14T00:24:12.600Z,8.30
2023-05-14T00:26:39.448Z,8.40
2023-05-14T00:29:07.195Z,8.50
2023-05-14T00:31:34.827Z,8.40
2023-05-14T00:34:03.049Z,8.40
2023-05-14T00:36:29.887Z,8.40
2023-05-14T00:38:56.785Z,8.40
2023-05-14T00:41:23.890Z,8.40
2023-05-14T00:43:51.554Z,8.40
2023-05-14T00:46:18.438Z,8.50
2023-05-14T00:48:45.723Z,8.50
2023-05-14T00:51:12.806Z,8.50
2023-05-14T00:53:39.977Z,8.60
2023-05-14T00:56:08.287Z,8.60
2023-05-14T00:58:35.524Z,8.60
2023-05-14T01:01:02.399Z,8.70
2023-05-14T01:03:31.882Z,8.60
2023-05-14T01:06:13.903Z,8.70
2023-05-14T01:09:06.262Z,8.70
2023-05-14T01:11:39.865Z,8.70
2023-05-14T01:14:25.706Z,8.70
2023-05-14T01:16:56.797Z,8.60
2023-05-14T01:19:41.054Z,8.60
2023-05-14T01:22:08.412Z,8.60
2023-05-14T01:24:36.111Z,8.60
2023-05-14T01:27:23.392Z,8.60
2023-05-14T01:30:03.080Z,8.60
2023-05-14T01:32:31.167Z,8.60
2023-05-14T01:35:00.414Z,8.60
2023-05-14T01:37:30.115Z,8.50
2023-05-14T01:39:59.018Z,8.60
2023-05-14T01:42:26.944Z,8.60
2023-05-14T01:44:54.377Z,8.70
2023-05-14T01:47:21.298Z,8.70
2023-05-14T01:49:48.966Z,8.70
2023-05-14T01:52:17.106Z,8.80
2023-05-14T01:54:44.152Z,8.80
2023-05-14T01:57:10.972Z,8.70
2023-05-14T01:59:37.971Z,8.80
2023-05-14T02:02:04.949Z,8.80
2023-05-14T02:04:31.764Z,8.70
2023-05-14T02:06:58.708Z,8.80
2023-05-14T02:09:25.698Z,8.80
2023-05-14T02:11:52.493Z,8.80
2023-05-14T02:14:19.317Z,8.80
2023-05-14T02:16:46.601Z,8.80
2023-05-14T02:19:13.743Z,8.80
2023-05-14T02:21:40.642Z,8.90
2023-05-14T02:24:07.425Z,8.90
2023-05-14T02:26:34.850Z,8.90
2023-05-14T02:29:01.614Z,8.90
2023-05-14T02:31:28.890Z,8.80
2023-05-14T02:33:55.705Z,8.80
2023-05-14T02:36:22.646Z,8.80
2023-05-14T02:38:49.414Z,8.80
2023-05-14T02:41:16.577Z,8.80
2023-05-14T02:43:43.501Z,8.80
2023-05-14T02:46:10.746Z,8.80
2023-05-14T02:48:37.917Z,8.80
2023-05-14T02:51:07.880Z,8.80
2023-05-14T02:53:34.868Z,8.80
2023-05-14T02:56:01.795Z,8.80
2023-05-14T02:58:29.005Z,8.70
2023-05-14T03:00:56.341Z,8.70
2023-05-14T03:03:23.782Z,8.70
2023-05-14T03:05:51.974Z,8.70
2023-05-14T03:08:19.063Z,8.70
2023-05-14T03:10:46.032Z,8.80
2023-05-14T03:13:13.866Z,8.80
2023-05-14T03:15:40.612Z,8.80
2023-05-14T03:18:07.442Z,8.70
2023-05-14T03:20:34.255Z,8.80
2023-05-14T03:23:01.700Z,8.80
2023-05-14T03:25:28.821Z,8.80
2023-05-14T03:27:55.714Z,8.80
2023-05-14T03:30:22.915Z,8.80
2023-05-14T03:32:50.476Z,8.80
2023-05-14T03:35:17.576Z,8.80
2023-05-14T03:37:44.333Z,8.80
2023-05-14T03:40:12.087Z,8.80
2023-05-14T03:42:38.932Z,8.90
2023-05-14T03:45:07.471Z,8.80
2023-05-14T03:47:34.539Z,8.90
2023-05-14T03:50:01.506Z,9.00
2023-05-14T03:52:28.227Z,9.00
2023-05-14T03:54:54.990Z,9.10
2023-05-14T03:57:21.770Z,9.00
2023-05-14T03:59:48.532Z,9.00
2023-05-14T04:02:15.614Z,9.00
2023-05-14T04:04:42.449Z,9.00
2023-05-14T04:07:09.299Z,9.00
2023-05-14T04:09:36.619Z,9.00
2023-05-14T04:12:03.838Z,9.10
2023-05-14T04:14:31.095Z,9.10
2023-05-14T04:16:59.541Z,9.10
2023-05-14T04:19:27.304Z,9.10
2023-05-14T04:21:54.122Z,9.10
2023-05-14T04:24:21.292Z,9.20
2023-05-14T04:26:48.581Z,9.20
2023-05-14T04:29:15.852Z,9.20
2023-05-14T04:31:43.155Z,9.20
2023-05-14T04:34:10.085Z,9.10
2023-05-14T04:36:37.076Z,9.20
2023-05-14T04:39:04.146Z,9.20
2023-05-14T04:41:31.013Z,9.20
2023-05-14T04:44:00.796Z,9.20
2023-05-14T04:46:28.282Z,9.10
2023-05-14T04:48:56.416Z,9.20
2023-05-14T04:51:23.566Z,9.20
2023-05-14T04:53:50.311Z,9.30
2023-05-14T04:56:17.237Z,9.30
2023-05-14T04:58:44.113Z,9.40
2023-05-14T05:01:11.162Z,9.40
2023-05-14T05:03:37.971Z,9.40
2023-05-14T05:06:05.079Z,9.50
2023-05-14T05:08:31.866Z,9.50
2023-05-14T05:10:58.787Z,9.60
2023-05-14T05:13:25.620Z,9.60
2023-05-14T05:15:53.020Z,9.60
2023-05-14T05:18:19.934Z,9.70
2023-05-14T05:20:46.717Z,9.60
2023-05-14T05:23:13.552Z,9.70
2023-05-14T05:25:40.429Z,9.60
2023-05-14T05:28:07.226Z,9.70
2023-05-14T05:30:34.189Z,9.70
2023-05-14T05:33:01.165Z,9.70
2023-05-14T05:35:28.214Z,9.60
2023-05-14T05:37:55.057Z,9.60
2023-05-14T05:40:22.055Z,9.70
2023-05-14T05:42:48.988Z,9.80
2023-05-14T05:45:15.990Z,9.80
2023-05-14T05:47:42.994Z,9.90
2023-05-14T05:50:10.899Z,9.90
2023-05-14T05:52:38.170Z,10.10
2023-05-14T05:55:05.449Z,10.20
2023-05-14T05:57:32.248Z,10.20
2023-05-14T05:59:59.048Z,10.30
2023-05-14T06:02:26.085Z,10.50
2023-05-14T06:04:53.219Z,10.50
2023-05-14T06:07:20.126Z,10.40
2023-05-14T06:09:46.911Z,10.40
2023-05-14T06:12:13.660Z,10.50
2023-05-14T06:14:40.447Z,10.50
2023-05-14T06:17:07.543Z,10.50
2023-05-14T06:19:34.335Z,10.60
2023-05-14T06:22:01.208Z,10.70
2023-05-14T06:24:27.993Z,10.90
2023-05-14T06:26:54.862Z,10.90
2023-05-14T06:29:21.831Z,11.00
2023-05-14T06:31:48.904Z,11.10
2023-05-14T06:34:15.761Z,11.30
2023-05-14T06:36:42.524Z,11.70
2023-05-14T06:39:09.941Z,12.20
2023-05-14T06:41:36.712Z,12.40
2023-05-14T06:44:03.690Z,12.50
2023-05-14T06:46:30.436Z,12.70
2023-05-14T06:48:59.338Z,12.60
2023-05-14T06:51:26.487Z,12.50
2023-05-14T06:53:55.136Z,12.40
2023-05-14T06:56:24.886Z,12.50
2023-05-14T06:58:51.658Z,12.60
2023-05-14T07:01:18.428Z,12.60
2023-05-14T07:03:45.624Z,12.50
2023-05-14T07:06:13.669Z,12.30
2023-05-14T07:08:40.836Z,12.70
2023-05-14T07:11:07.710Z,12.80
2023-05-14T07:13:34.639Z,13.20
2023-05-14T07:16:01.546Z,13.70
2023-05-14T07:18:28.837Z,14.20
2023-05-14T07:20:55.658Z,14.40
2023-05-14T07:23:22.687Z,14.30
2023-05-14T07:25:49.985Z,13.90
2023-05-14T07:28:16.823Z,13.70
2023-05-14T07:30:43.664Z,13.70
2023-05-14T07:33:10.673Z,13.60
2023-05-14T07:35:37.512Z,13.60
2023-05-14T07:38:05.795Z,13.60
2023-05-14T07:40:32.560Z,13.50
2023-05-14T07:42:59.429Z,13.30
2023-05-14T07:45:26.295Z,13.10
2023-05-14T07:47:53.183Z,13.10
2023-05-14T07:50:20.096Z,13.50
2023-05-14T07:52:46.908Z,13.60
2023-05-14T07:55:13.774Z,13.50
2023-05-14T07:57:40.807Z,13.40
2023-05-14T08:00:08.241Z,13.30
2023-05-14T08:02:42.548Z,13.10
2023-05-14T08:05:10.091Z,13.00
2023-05-14T08:07:36.841Z,12.80
2023-05-14T08:10:04.271Z,12.80
2023-05-14T08:12:31.777Z,12.80
2023-05-14T08:14:58.671Z,12.70
2023-05-14T08:17:25.534Z,12.60
2023-05-14T08:19:53.651Z,12.60
2023-05-14T08:22:20.610Z,12.50
2023-05-14T08:24:47.798Z,12.30
2023-05-14T08:27:14.653Z,12.20
2023-05-14T08:29:41.611Z,12.20
2023-05-14T08:32:22.127Z,12.20
2023-05-14T08:34:50.926Z,12.20
2023-05-14T08:37:17.753Z,12.50
2023-05-14T08:39:44.737Z,12.70
2023-05-14T08:42:13.888Z,12.70
2023-05-14T08:44:50.054Z,12.70
2023-05-14T08:47:18.823Z,12.50
2023-05-14T08:49:49.603Z,12.30
2023-05-14T08:52:18.064Z,12.00
2023-05-14T08:54:46.733Z,11.90
2023-05-14T08:57:14.359Z,12.00
2023-05-14T08:59:41.375Z,12.00
2023-05-14T09:02:11.866Z,12.00
2023-05-14T09:04:39.767Z,12.10
2023-05-14T09:07:07.856Z,12.30
2023-05-14T09:09:35.166Z,12.30
2023-05-14T09:12:02.259Z,12.60
2023-05-14T09:14:28.992Z,13.00
2023-05-14T09:16:57.115Z,13.10
2023-05-14T09:19:24.275Z,12.90
2023-05-14T09:21:51.360Z,13.00
2023-05-14T09:24:23.050Z,12.90
2023-05-14T09:26:53.848Z,12.80
2023-05-14T09:29:21.101Z,12.90
2023-05-14T09:31:51.761Z,13.00
2023-05-14T09:34:30.721Z,13.20
2023-05-14T09:36:59.300Z,13.20
2023-05-14T09:39:26.880Z,13.20
2023-05-14T09:41:53.903Z,13.30
2023-05-14T09:44:21.066Z,13.80
2023-05-14T09:46:48.804Z,13.90
2023-05-14T09:49:16.136Z,13.80
2023-05-14T09:51:43.005Z,13.70
2023-05-14T09:54:10.130Z,13.40
2023-05-14T09:56:38.103Z,13.10
2023-05-14T09:59:05.757Z,13.00
2023-05-14T10:01:33.597Z,13.20
2023-05-14T10:04:02.288Z,13.40
2023-05-14T10:06:33.637Z,13.60
2023-05-14T10:09:05.708Z,13.80
2023-05-14T10:11:37.140Z,14.20
2023-05-14T10:14:36.064Z,14.60
2023-05-14T10:17:04.885Z,14.70
2023-05-14T10:19:35.350Z,14.70
2023-05-14T10:22:10.034Z,14.80
2023-05-14T10:24:39.074Z,14.50
2023-05-14T10:27:06.558Z,14.60
2023-05-14T10:29:37.913Z,14.90
2023-05-14T10:32:06.962Z,15.70
2023-05-14T10:34:46.657Z,16.40
2023-05-14T10:37:24.763Z,16.60
2023-05-14T10:39:58.793Z,17.20
2023-05-14T10:42:40.888Z,18.10
2023-05-14T10:45:13.358Z,18.50
2023-05-14T10:47:43.409Z,19.10
2023-05-14T10:50:14.107Z,19.80
2023-05-14T10:52:43.381Z,19.40
2023-05-14T10:55:13.931Z,18.90
2023-05-14T10:57:43.921Z,18.30
2023-05-14T11:00:12.563Z,18.00
2023-05-14T11:02:44.301Z,18.10
2023-05-14T11:05:15.611Z,17.90
2023-05-14T11:07:52.625Z,17.70
2023-05-14T11:10:21.761Z,17.90
2023-05-14T11:12:50.854Z,18.50
2023-05-14T11:15:23.186Z,18.60
2023-05-14T11:17:51.207Z,17.70
2023-05-14T11:20:19.067Z,17.10
2023-05-14T11:22:48.253Z,16.90
2023-05-14T11:25:15.629Z,16.60
2023-05-14T11:27:44.884Z,16.40
2023-05-14T11:30:21.733Z,16.10
2023-05-14T11:32:49.965Z,15.90
2023-05-14T11:35:18.071Z,15.80
2023-05-14T11:37:51.462Z,15.70
2023-05-14T11:40:18.658Z,15.50
2023-05-14T11:42:45.792Z,15.50
2023-05-14T11:45:13.787Z,15.70
2023-05-14T11:47:43.943Z,15.80
2023-05-14T11:50:11.213Z,16.00
2023-05-14T11:52:41.717Z,16.40
2023-05-14T11:55:12.796Z,16.70
2023-05-14T11:57:40.952Z,16.70
2023-05-14T12:00:16.938Z,17.40
2023-05-14T12:02:43.971Z,17.70
2023-05-14T12:05:13.267Z,17.80
2023-05-14T12:07:40.535Z,17.60
2023-05-14T12:10:08.005Z,17.70
2023-05-14T12:12:37.156Z,17.70
2023-05-14T12:15:12.637Z,17.90
2023-05-14T12:17:39.829Z,17.90
2023-05-14T12:20:11.000Z,18.10
2023-05-14T12:22:38.654Z,17.90
2023-05-14T12:25:12.590Z,17.50
2023-05-14T12:27:39.617Z,17.80
2023-05-14T12:32:40.978Z,18.00
2023-05-14T12:35:08.754Z,17.90
2023-05-14T12:37:37.324Z,17.80
2023-05-14T12:40:09.086Z,17.80
2023-05-14T12:42:36.466Z,17.70
2023-05-14T12:45:07.082Z,17.80
2023-05-14T12:47:34.325Z,17.40
2023-05-14T12:50:01.358Z,17.80
2023-05-14T12:52:37.642Z,18.10
2023-05-14T12:55:07.169Z,18.10
2023-05-14T12:57:35.498Z,18.10
2023-05-14T13:00:06.889Z,18.20
2023-05-14T13:02:42.895Z,17.90
2023-05-14T13:05:13.852Z,17.60
2023-05-14T13:07:41.198Z,17.40
2023-05-14T13:10:08.630Z,17.30
2023-05-14T13:12:35.543Z,17.10
2023-05-14T13:15:02.537Z,16.80
2023-05-14T13:17:29.519Z,16.60
2023-05-14T13:19:56.375Z,16.60
2023-05-14T13:22:23.153Z,17.00
2023-05-14T13:24:50.540Z,16.80
2023-05-14T13:27:17.467Z,16.30
2023-05-14T13:29:44.278Z,16.10
2023-05-14T13:32:11.084Z,15.90
2023-05-14T13:34:37.977Z,15.90
2023-05-14T13:37:05.065Z,15.90
2023-05-14T13:39:32.235Z,15.30
2023-05-14T13:41:59.061Z,15.00
2023-05-14T13:44:25.962Z,14.70
2023-05-14T13:46:53.103Z,14.40
2023-05-14T13:49:19.992Z,14.30
2023-05-14T13:51:46.985Z,14.30
2023-05-14T13:54:13.787Z,14.10
2023-05-14T13:56:41.318Z,14.00
2023-05-14T13:59:08.354Z,14.00
2023-05-14T14:01:35.192Z,14.10
2023-05-14T14:04:03.254Z,14.20
2023-05-14T14:06:32.223Z,14.40
2023-05-14T14:08:59.097Z,15.10
2023-05-14T14:11:26.268Z,15.90
2023-05-14T14:13:53.516Z,16.20
2023-05-14T14:16:20.314Z,16.80
2023-05-14T14:18:47.203Z,16.60
2023-05-14T14:21:17.846Z,18.00
2023-05-14T14:23:46.606Z,18.80
2023-05-14T14:26:13.484Z,18.30
2023-05-14T14:28:40.546Z,18.90
2023-05-14T14:31:07.755Z,19.40
2023-05-14T14:33:35.906Z,18.80
2023-05-14T14:36:02.810Z,19.00
2023-05-14T14:38:29.670Z,19.10
2023-05-14T14:40:57.653Z,18.70
2023-05-14T14:43:24.672Z,17.10
2023-05-14T14:45:51.597Z,15.50
2023-05-14T14:48:34.208Z,13.40
2023-05-14T14:51:01.589Z,12.20
2023-05-14T14:53:28.446Z,11.30
2023-05-14T14:55:56.002Z,10.90
2023-05-14T14:58:22.961Z,10.60
2023-05-14T15:00:52.748Z,10.50
2023-05-14T15:03:20.871Z,10.30
2023-05-14T15:05:48.373Z,10.10
2023-05-14T15:08:15.680Z,10.00
2023-05-14T15:10:42.673Z,9.90
2023-05-14T15:13:09.625Z,9.90
2023-05-14T15:15:36.641Z,9.80
2023-05-14T15:18:04.377Z,9.80
2023-05-14T15:20:31.212Z,9.80
2023-05-14T15:22:58.081Z,9.80
2023-05-14T15:25:26.533Z,9.80
2023-05-14T15:27:53.471Z,9.90
2023-05-14T15:30:20.410Z,9.80
2023-05-14T15:32:47.180Z,10.00
2023-05-14T15:35:14.071Z,10.20
2023-05-14T15:37:42.652Z,10.30
2023-05-14T15:40:10.918Z,10.30
2023-05-14T15:42:46.998Z,10.40
2023-05-14T15:45:14.365Z,10.60
2023-05-14T15:47:41.675Z,10.60
2023-05-14T15:50:09.210Z,10.70
2023-05-14T15:52:36.476Z,10.80
2023-05-14T15:55:05.058Z,10.80
2023-05-14T15:57:31.919Z,10.90
2023-05-14T15:59:58.725Z,10.90
2023-05-14T16:02:25.800Z,10.90
2023-05-14T16:04:52.674Z,11.00
2023-05-14T16:07:19.476Z,11.10
2023-05-14T16:09:46.746Z,11.10
2023-05-14T16:12:14.318Z,11.10
2023-05-14T16:14:42.186Z,11.20
2023-05-14T16:17:09.317Z,11.30
2023-05-14T16:19:36.179Z,11.40
2023-05-14T16:22:02.994Z,11.40
2023-05-14T16:24:29.941Z,11.50
2023-05-14T16:26:57.080Z,11.50
2023-05-14T16:29:23.875Z,11.50
2023-05-14T16:31:50.909Z,11.60
2023-05-14T16:34:17.687Z,11.50
2023-05-14T16:36:44.512Z,11.50
2023-05-14T16:39:11.565Z,11.60
2023-05-14T16:41:38.370Z,11.60
2023-05-14T16:44:05.177Z,11.60
2023-05-14T16:46:32.358Z,11.70
2023-05-14T16:48:59.972Z,11.80
2023-05-14T16:51:26.729Z,11.90
2023-05-14T16:53:55.462Z,12.10
2023-05-14T16:56:22.747Z,12.10
2023-05-14T16:58:49.897Z,12.10
2023-05-14T17:01:17.039Z,12.10
2023-05-14T17:03:45.566Z,12.00
2023-05-14T17:06:12.385Z,12.00
2023-05-14T17:08:39.187Z,11.90
2023-05-14T17:11:06.211Z,11.70
2023-05-14T17:13:34.100Z,11.60
2023-05-14T17:16:01.151Z,11.60
2023-05-14T17:18:28.502Z,11.70
2023-05-14T17:20:55.444Z,11.90
2023-05-14T17:23:22.298Z,12.00
2023-05-14T17:25:49.053Z,12.20
2023-05-14T17:28:15.815Z,12.30
2023-05-14T17:30:42.644Z,12.30
2023-05-14T17:33:09.538Z,12.30
2023-05-14T17:35:37.280Z,12.20
2023-05-14T17:38:04.250Z,12.20
2023-05-14T17:40:31.131Z,12.20
2023-05-14T17:42:58.061Z,12.30
2023-05-14T17:45:25.352Z,12.20
2023-05-14T17:47:52.670Z,12.20
2023-05-14T17:50:20.187Z,12.20
2023-05-14T17:52:47.639Z,12.20
2023-05-14T17:55:14.645Z,12.20
2023-05-14T17:57:42.139Z,11.90
2023-05-14T18:00:09.470Z,11.70
2023-05-14T18:02:39.773Z,11.60
2023-05-14T18:05:07.240Z,11.70
2023-05-14T18:07:35.494Z,11.70
2023-05-14T18:10:02.740Z,11.70
2023-05-14T18:12:29.668Z,11.80
2023-05-14T18:14:56.435Z,11.80
2023-05-14T18:17:23.256Z,11.90
2023-05-14T18:19:50.088Z,11.90
2023-05-14T18:22:16.847Z,11.90
2023-05-14T18:24:44.414Z,11.80
2023-05-14T18:27:11.406Z,11.70
2023-05-14T18:29:38.321Z,11.40
2023-05-14T18:32:05.839Z,11.10
2023-05-14T18:34:32.603Z,10.90
2023-05-14T18:36:59.446Z,10.70
2023-05-14T18:39:26.196Z,10.50
2023-05-14T18:41:53.047Z,10.40
2023-05-14T18:44:20.109Z,10.20
2023-05-14T18:46:47.014Z,10.20
2023-05-14T18:49:13.913Z,10.10
2023-05-14T18:51:40.972Z,10.00
2023-05-14T18:54:07.726Z,10.00
2023-05-14T18:56:36.832Z,9.90
2023-05-14T18:59:04.333Z,9.80
2023-05-14T19:01:31.432Z,9.70
2023-05-14T19:03:58.496Z,9.50
2023-05-14T19:06:25.703Z,9.50
2023-05-14T19:08:52.453Z,9.40
2023-05-14T19:11:19.671Z,9.40
2023-05-14T19:13:47.838Z,9.40
2023-05-14T19:16:14.771Z,9.40
2023-05-14T19:18:41.737Z,9.30
2023-05-14T19:21:08.794Z,9.10
2023-05-14T19:23:35.646Z,9.10
2023-05-14T19:26:02.449Z,9.00
2023-05-14T19:28:29.288Z,8.90
2023-05-14T19:30:57.286Z,8.80
2023-05-14T19:33:25.880Z,8.80
2023-05-14T19:35:52.769Z,8.90
2023-05-14T19:38:19.772Z,8.80
2023-05-14T19:40:46.702Z,8.80
2023-05-14T19:43:13.607Z,8.70
2023-05-14T19:45:42.631Z,8.60
2023-05-14T19:48:09.521Z,8.60
2023-05-14T19:50:39.757Z,8.60
2023-05-14T19:53:06.501Z,8.60
2023-05-14T19:55:33.468Z,8.60
2023-05-14T19:58:00.376Z,8.50
2023-05-14T20:00:27.465Z,8.50
2023-05-14T20:02:54.644Z,8.60
2023-05-14T20:05:21.609Z,8.60
2023-05-14T20:07:48.966Z,8.60
2023-05-14T20:10:15.849Z,8.60
2023-05-14T20:12:42.852Z,8.50
2023-05-14T20:15:10.091Z,8.50
2023-05-14T20:17:38.479Z,8.50
2023-05-14T20:20:06.880Z,8.40
2023-05-14T20:22:34.049Z,8.40
2023-05-14T20:25:00.834Z,8.30
2023-05-14T20:27:27.696Z,8.20
2023-05-14T20:29:54.444Z,8.30
2023-05-14T20:32:25.000Z,8.30
2023-05-14T20:34:52.059Z,8.30
2023-05-14T20:37:19.816Z,8.40
2023-05-14T20:39:46.839Z,8.40
2023-05-14T20:42:13.595Z,8.30
2023-05-14T20:44:40.346Z,8.30
2023-05-14T20:47:07.231Z,8.30
2023-05-14T20:49:34.318Z,8.30
2023-05-14T20:52:01.504Z,8.30
2023-05-14T20:54:28.223Z,8.30
2023-05-14T20:56:54.945Z,8.30
2023-05-14T20:59:21.762Z,8.20
2023-05-14T21:01:48.636Z,8.20
2023-05-14T21:04:15.583Z,8.20
2023-05-14T21:06:42.662Z,8.20
2023-05-14T21:09:10.675Z,8.20
2023-05-14T21:11:37.624Z,8.20
2023-05-14T21:14:04.742Z,8.10
2023-05-14T21:16:31.832Z,8.10
2023-05-14T21:18:58.770Z,8.00
2023-05-14T21:21:26.075Z,7.90
2023-05-14T21:23:52.935Z,7.90
2023-05-14T21:26:21.866Z,7.80
2023-05-14T21:28:49.065Z,7.80
2023-05-14T21:31:15.906Z,7.80
2023-05-14T21:33:42.766Z,7.70
2023-05-14T21:36:09.803Z,7.60
2023-05-14T21:38:36.797Z,7.50
2023-05-14T21:41:03.638Z,7.50
2023-05-14T21:43:30.548Z,7.50
2023-05-14T21:45:57.631Z,7.50
2023-05-14T21:48:24.478Z,7.40
2023-05-14T21:50:51.420Z,7.40
2023-05-14T21:53:18.242Z,7.20
2023-05-14T21:55:45.188Z,7.20
2023-05-14T21:58:12.080Z,7.00
2023-05-14T22:00:39.256Z,7.00
2023-05-14T22:03:06.146Z,6.90
2023-05-14T22:05:33.433Z,7.00
2023-05-14T22:08:00.313Z,7.20
2023-05-14T22:10:27.067Z,7.30
2023-05-14T22:12:53.840Z,7.30
2023-05-14T22:15:20.866Z,7.30
2023-05-14T22:17:48.126Z,7.30
2023-05-14T22:20:15.019Z,7.40
2023-05-14T22:22:42.073Z,7.20
2023-05-14T22:25:09.576Z,7.20
2023-05-14T22:27:36.350Z,7.20
2023-05-14T22:30:03.627Z,7.10
2023-05-14T22:32:30.421Z,7.00
2023-05-14T22:34:57.243Z,6.90
2023-05-14T22:37:24.097Z,6.90
2023-05-14T22:39:50.869Z,7.00
2023-05-14T22:42:17.797Z,7.00
2023-05-14T22:44:44.572Z,7.10
2023-05-14T22:47:19.239Z,7.20
2023-05-14T22:49:46.724Z,7.20
2023-05-14T22:52:13.473Z,7.20
2023-05-14T22:54:40.274Z,7.10
2023-05-14T22:57:07.158Z,7.10
2023-05-14T22:59:33.926Z,7.10
2023-05-14T23:02:00.783Z,7.10
2023-05-14T23:04:27.588Z,7.00
2023-05-14T23:06:54.489Z,6.90
2023-05-14T23:09:22.482Z,6.80
2023-05-14T23:11:49.332Z,6.90
2023-05-14T23:14:17.910Z,6.80
2023-05-14T23:16:44.923Z,6.80
2023-05-14T23:19:11.951Z,6.80
2023-05-14T23:21:38.806Z,6.80
2023-05-14T23:24:05.956Z,6.80
2023-05-14T23:26:33.050Z,6.70
2023-05-14T23:28:59.814Z,6.70
2023-05-14T23:31:26.671Z,6.80
2023-05-14T23:33:53.503Z,7.00
2023-05-14T23:36:20.514Z,7.00
2023-05-14T23:38:47.407Z,7.00
2023-05-14T23:41:14.174Z,6.90
2023-05-14T23:43:41.009Z,6.80
2023-05-14T23:46:08.812Z,6.60
2023-05-14T23:48:35.862Z,6.60
2023-05-14T23:51:02.640Z,6.40
2023-05-14T23:53:29.447Z,6.30
2023-05-14T23:55:56.526Z,6.20
2023-05-14T23:58:23.413Z,6.20
